sensor_id;sensor_type;location;lat;lon;timestamp;P1;durP1;ratioP1;P2;durP2;ratioP2
35442;SDS011;21561;55.654;37.592;2022-07-29T00:00:13;6.45;;;1.90;;
35442;SDS011;21561;55.654;37.592;2022-07-29T00:02:40;2.38;;;1.40;;
35442;SDS011;21561;55.654;37.592;2022-07-29T00:05:07;3.83;;;1.58;;
35442;SDS011;21561;55.654;37.592;2022-07-29T00:07:36;5.90;;;1.60;;
35442;SDS011;21561;55.654;37.592;2022-07-29T00:10:03;2.83;;;1.48;;
35442;SDS011;21561;55.654;37.592;2022-07-29T00:12:30;8.73;;;1.80;;
35442;SDS011;21561;55.654;37.592;2022-07-29T00:14:57;6.68;;;1.50;;
35442;SDS011;21561;55.654;37.592;2022-07-29T00:17:24;6.50;;;1.58;;
35442;SDS011;21561;55.654;37.592;2022-07-29T00:19:51;1.75;;;1.38;;
35442;SDS011;21561;55.654;37.592;2022-07-29T00:22:19;7.35;;;1.83;;
35442;SDS011;21561;55.654;37.592;2022-07-29T00:24:47;9.30;;;1.48;;
35442;SDS011;21561;55.654;37.592;2022-07-29T00:27:15;5.40;;;1.70;;
35442;SDS011;21561;55.654;37.592;2022-07-29T00:29:42;6.97;;;1.70;;
35442;SDS011;21561;55.654;37.592;2022-07-29T00:32:09;4.80;;;1.63;;
35442;SDS011;21561;55.654;37.592;2022-07-29T00:34:39;5.55;;;1.65;;
35442;SDS011;21561;55.654;37.592;2022-07-29T00:37:25;9.00;;;1.80;;
35442;SDS011;21561;55.654;37.592;2022-07-29T00:39:52;5.97;;;1.90;;
35442;SDS011;21561;55.654;37.592;2022-07-29T00:42:21;6.25;;;2.05;;
35442;SDS011;21561;55.654;37.592;2022-07-29T00:44:51;6.30;;;1.60;;
35442;SDS011;21561;55.654;37.592;2022-07-29T00:47:18;4.93;;;1.80;;
35442;SDS011;21561;55.654;37.592;2022-07-29T00:49:45;10.35;;;2.03;;
35442;SDS011;21561;55.654;37.592;2022-07-29T00:52:12;5.68;;;2.00;;
35442;SDS011;21561;55.654;37.592;2022-07-29T00:54:42;6.03;;;1.70;;
35442;SDS011;21561;55.654;37.592;2022-07-29T00:57:10;3.78;;;1.80;;
35442;SDS011;21561;55.654;37.592;2022-07-29T00:59:40;4.78;;;1.70;;
35442;SDS011;21561;55.654;37.592;2022-07-29T01:02:07;5.10;;;1.85;;
35442;SDS011;21561;55.654;37.592;2022-07-29T01:04:34;12.75;;;2.10;;
35442;SDS011;21561;55.654;37.592;2022-07-29T01:07:02;5.72;;;1.90;;
35442;SDS011;21561;55.654;37.592;2022-07-29T01:09:30;7.80;;;1.90;;
35442;SDS011;21561;55.654;37.592;2022-07-29T01:12:15;10.13;;;2.08;;
35442;SDS011;21561;55.654;37.592;2022-07-29T01:14:47;7.85;;;1.77;;
35442;SDS011;21561;55.654;37.592;2022-07-29T01:17:29;9.93;;;1.88;;
35442;SDS011;21561;55.654;37.592;2022-07-29T01:20:07;5.20;;;2.00;;
35442;SDS011;21561;55.654;37.592;2022-07-29T01:31:11;7.18;;;2.00;;
35442;SDS011;21561;55.654;37.592;2022-07-29T01:33:53;5.60;;;2.10;;
35442;SDS011;21561;55.654;37.592;2022-07-29T01:36:47;6.25;;;2.28;;
35442;SDS011;21561;55.654;37.592;2022-07-29T01:41:55;8.55;;;2.13;;
35442;SDS011;21561;55.654;37.592;2022-07-29T01:44:27;8.23;;;2.10;;
35442;SDS011;21561;55.654;37.592;2022-07-29T01:47:01;9.18;;;1.75;;
35442;SDS011;21561;55.654;37.592;2022-07-29T01:49:33;6.47;;;2.05;;
35442;SDS011;21561;55.654;37.592;2022-07-29T01:52:11;8.13;;;1.80;;
35442;SDS011;21561;55.654;37.592;2022-07-29T01:54:48;6.30;;;1.70;;
35442;SDS011;21561;55.654;37.592;2022-07-29T01:57:21;9.73;;;1.80;;
35442;SDS011;21561;55.654;37.592;2022-07-29T01:59:59;5.97;;;1.98;;
35442;SDS011;21561;55.654;37.592;2022-07-29T02:02:29;6.82;;;1.80;;
35442;SDS011;21561;55.654;37.592;2022-07-29T02:04:58;6.18;;;1.98;;
35442;SDS011;21561;55.654;37.592;2022-07-29T02:07:29;12.35;;;2.25;;
35442;SDS011;21561;55.654;37.592;2022-07-29T02:10:08;10.02;;;2.38;;
35442;SDS011;21561;55.654;37.592;2022-07-29T02:12:39;6.57;;;1.90;;
35442;SDS011;21561;55.654;37.592;2022-07-29T02:15:35;6.97;;;2.10;;
35442;SDS011;21561;55.654;37.592;2022-07-29T02:18:24;9.50;;;2.28;;
35442;SDS011;21561;55.654;37.592;2022-07-29T02:20:52;9.50;;;2.28;;
35442;SDS011;21561;55.654;37.592;2022-07-29T02:23:22;8.95;;;2.45;;
35442;SDS011;21561;55.654;37.592;2022-07-29T02:25:51;8.07;;;2.33;;
35442;SDS011;21561;55.654;37.592;2022-07-29T02:28:21;9.90;;;2.22;;
35442;SDS011;21561;55.654;37.592;2022-07-29T02:30:51;7.32;;;2.30;;
35442;SDS011;21561;55.654;37.592;2022-07-29T02:33:25;10.02;;;2.70;;
35442;SDS011;21561;55.654;37.592;2022-07-29T02:35:53;14.85;;;2.80;;
35442;SDS011;21561;55.654;37.592;2022-07-29T02:38:23;8.07;;;2.20;;
35442;SDS011;21561;55.654;37.592;2022-07-29T02:41:11;8.85;;;2.58;;
35442;SDS011;21561;55.654;37.592;2022-07-29T02:43:41;7.72;;;2.20;;
35442;SDS011;21561;55.654;37.592;2022-07-29T02:46:14;7.38;;;2.30;;
35442;SDS011;21561;55.654;37.592;2022-07-29T02:48:59;9.63;;;2.50;;
35442;SDS011;21561;55.654;37.592;2022-07-29T02:51:55;7.70;;;2.00;;
35442;SDS011;21561;55.654;37.592;2022-07-29T02:57:18;7.35;;;2.20;;
35442;SDS011;21561;55.654;37.592;2022-07-29T02:59:49;7.95;;;2.13;;
35442;SDS011;21561;55.654;37.592;2022-07-29T03:02:19;11.93;;;2.40;;
35442;SDS011;21561;55.654;37.592;2022-07-29T03:04:47;8.27;;;2.17;;
35442;SDS011;21561;55.654;37.592;2022-07-29T03:07:18;7.85;;;2.22;;
35442;SDS011;21561;55.654;37.592;2022-07-29T03:09:46;6.55;;;2.20;;
35442;SDS011;21561;55.654;37.592;2022-07-29T03:12:14;7.40;;;1.92;;
35442;SDS011;21561;55.654;37.592;2022-07-29T03:14:42;7.80;;;1.90;;
35442;SDS011;21561;55.654;37.592;2022-07-29T03:17:10;10.45;;;2.10;;
35442;SDS011;21561;55.654;37.592;2022-07-29T03:19:37;6.07;;;1.80;;
35442;SDS011;21561;55.654;37.592;2022-07-29T03:22:05;5.90;;;1.83;;
35442;SDS011;21561;55.654;37.592;2022-07-29T03:24:33;9.25;;;2.05;;
35442;SDS011;21561;55.654;37.592;2022-07-29T03:27:02;7.97;;;2.17;;
35442;SDS011;21561;55.654;37.592;2022-07-29T03:29:30;6.40;;;1.90;;
35442;SDS011;21561;55.654;37.592;2022-07-29T03:32:00;9.10;;;1.58;;
35442;SDS011;21561;55.654;37.592;2022-07-29T03:34:32;12.05;;;1.83;;
35442;SDS011;21561;55.654;37.592;2022-07-29T03:36:59;11.32;;;1.98;;
35442;SDS011;21561;55.654;37.592;2022-07-29T03:39:27;7.15;;;1.90;;
35442;SDS011;21561;55.654;37.592;2022-07-29T03:42:00;7.25;;;1.75;;
35442;SDS011;21561;55.654;37.592;2022-07-29T03:44:28;8.30;;;2.05;;
35442;SDS011;21561;55.654;37.592;2022-07-29T03:46:57;7.47;;;1.88;;
35442;SDS011;21561;55.654;37.592;2022-07-29T03:49:28;8.00;;;1.90;;
35442;SDS011;21561;55.654;37.592;2022-07-29T03:51:57;7.13;;;1.50;;
35442;SDS011;21561;55.654;37.592;2022-07-29T03:54:24;3.47;;;1.58;;
35442;SDS011;21561;55.654;37.592;2022-07-29T03:56:53;9.00;;;1.95;;
35442;SDS011;21561;55.654;37.592;2022-07-29T03:59:21;7.45;;;1.80;;
35442;SDS011;21561;55.654;37.592;2022-07-29T04:01:49;7.35;;;1.77;;
35442;SDS011;21561;55.654;37.592;2022-07-29T04:04:16;10.82;;;2.00;;
35442;SDS011;21561;55.654;37.592;2022-07-29T04:06:45;5.82;;;1.83;;
35442;SDS011;21561;55.654;37.592;2022-07-29T04:09:13;7.43;;;1.90;;
35442;SDS011;21561;55.654;37.592;2022-07-29T04:11:41;5.22;;;1.60;;
35442;SDS011;21561;55.654;37.592;2022-07-29T04:14:30;6.70;;;2.25;;
35442;SDS011;21561;55.654;37.592;2022-07-29T04:16:59;5.10;;;1.60;;
35442;SDS011;21561;55.654;37.592;2022-07-29T04:19:27;7.00;;;1.80;;
35442;SDS011;21561;55.654;37.592;2022-07-29T04:22:01;5.63;;;1.70;;
35442;SDS011;21561;55.654;37.592;2022-07-29T04:24:28;7.50;;;1.85;;
35442;SDS011;21561;55.654;37.592;2022-07-29T04:26:55;6.70;;;2.05;;
35442;SDS011;21561;55.654;37.592;2022-07-29T04:29:22;4.68;;;1.70;;
35442;SDS011;21561;55.654;37.592;2022-07-29T04:31:49;6.47;;;2.28;;
35442;SDS011;21561;55.654;37.592;2022-07-29T04:34:16;6.13;;;1.83;;
35442;SDS011;21561;55.654;37.592;2022-07-29T04:36:44;5.32;;;1.60;;
35442;SDS011;21561;55.654;37.592;2022-07-29T04:39:13;7.35;;;2.00;;
35442;SDS011;21561;55.654;37.592;2022-07-29T04:41:47;6.18;;;1.83;;
35442;SDS011;21561;55.654;37.592;2022-07-29T04:44:15;7.97;;;2.40;;
35442;SDS011;21561;55.654;37.592;2022-07-29T04:46:44;6.80;;;1.90;;
35442;SDS011;21561;55.654;37.592;2022-07-29T04:49:11;7.50;;;1.70;;
35442;SDS011;21561;55.654;37.592;2022-07-29T04:51:38;4.15;;;1.67;;
35442;SDS011;21561;55.654;37.592;2022-07-29T04:54:07;6.90;;;1.80;;
35442;SDS011;21561;55.654;37.592;2022-07-29T04:56:34;6.40;;;1.77;;
35442;SDS011;21561;55.654;37.592;2022-07-29T04:59:01;5.93;;;1.60;;
35442;SDS011;21561;55.654;37.592;2022-07-29T05:01:28;7.13;;;1.75;;
35442;SDS011;21561;55.654;37.592;2022-07-29T05:03:55;8.45;;;1.70;;
35442;SDS011;21561;55.654;37.592;2022-07-29T05:06:26;11.23;;;1.90;;
35442;SDS011;21561;55.654;37.592;2022-07-29T05:08:53;7.30;;;2.15;;
35442;SDS011;21561;55.654;37.592;2022-07-29T05:11:19;10.40;;;2.15;;
35442;SDS011;21561;55.654;37.592;2022-07-29T05:13:52;6.57;;;1.73;;
35442;SDS011;21561;55.654;37.592;2022-07-29T05:16:19;6.57;;;2.08;;
35442;SDS011;21561;55.654;37.592;2022-07-29T05:18:46;11.60;;;1.98;;
35442;SDS011;21561;55.654;37.592;2022-07-29T05:21:13;4.03;;;1.55;;
35442;SDS011;21561;55.654;37.592;2022-07-29T05:23:40;6.85;;;1.70;;
35442;SDS011;21561;55.654;37.592;2022-07-29T05:26:07;10.52;;;2.17;;
35442;SDS011;21561;55.654;37.592;2022-07-29T05:28:34;7.72;;;2.00;;
35442;SDS011;21561;55.654;37.592;2022-07-29T05:31:04;11.25;;;2.10;;
35442;SDS011;21561;55.654;37.592;2022-07-29T05:33:34;5.38;;;1.63;;
35442;SDS011;21561;55.654;37.592;2022-07-29T05:36:03;5.07;;;2.10;;
35442;SDS011;21561;55.654;37.592;2022-07-29T05:38:36;8.50;;;1.77;;
35442;SDS011;21561;55.654;37.592;2022-07-29T05:41:04;7.43;;;1.92;;
35442;SDS011;21561;55.654;37.592;2022-07-29T05:43:34;8.68;;;1.60;;
35442;SDS011;21561;55.654;37.592;2022-07-29T05:46:01;9.85;;;2.38;;
35442;SDS011;21561;55.654;37.592;2022-07-29T05:48:28;7.95;;;1.67;;
35442;SDS011;21561;55.654;37.592;2022-07-29T05:50:55;9.40;;;1.80;;
35442;SDS011;21561;55.654;37.592;2022-07-29T05:53:22;6.57;;;1.60;;
35442;SDS011;21561;55.654;37.592;2022-07-29T05:55:49;6.32;;;1.58;;
35442;SDS011;21561;55.654;37.592;2022-07-29T05:58:16;7.90;;;1.80;;
35442;SDS011;21561;55.654;37.592;2022-07-29T06:00:43;7.07;;;1.50;;
35442;SDS011;21561;55.654;37.592;2022-07-29T06:03:11;6.70;;;2.00;;
35442;SDS011;21561;55.654;37.592;2022-07-29T06:05:38;9.05;;;1.77;;
35442;SDS011;21561;55.654;37.592;2022-07-29T06:08:05;10.10;;;1.92;;
35442;SDS011;21561;55.654;37.592;2022-07-29T06:10:36;7.45;;;1.77;;
35442;SDS011;21561;55.654;37.592;2022-07-29T06:13:04;7.72;;;1.70;;
35442;SDS011;21561;55.654;37.592;2022-07-29T06:15:31;4.40;;;1.27;;
35442;SDS011;21561;55.654;37.592;2022-07-29T06:17:58;6.82;;;1.83;;
35442;SDS011;21561;55.654;37.592;2022-07-29T06:20:28;12.50;;;2.25;;
35442;SDS011;21561;55.654;37.592;2022-07-29T06:22:58;6.25;;;1.92;;
35442;SDS011;21561;55.654;37.592;2022-07-29T06:25:26;7.55;;;1.85;;
35442;SDS011;21561;55.654;37.592;2022-07-29T06:27:57;6.97;;;1.65;;
35442;SDS011;21561;55.654;37.592;2022-07-29T06:30:24;7.07;;;1.70;;
35442;SDS011;21561;55.654;37.592;2022-07-29T06:32:51;8.15;;;1.90;;
35442;SDS011;21561;55.654;37.592;2022-07-29T06:35:18;9.15;;;1.98;;
35442;SDS011;21561;55.654;37.592;2022-07-29T06:38:05;7.63;;;1.77;;
35442;SDS011;21561;55.654;37.592;2022-07-29T06:40:52;6.70;;;1.55;;
35442;SDS011;21561;55.654;37.592;2022-07-29T06:43:29;8.27;;;1.98;;
35442;SDS011;21561;55.654;37.592;2022-07-29T06:46:20;5.45;;;1.25;;
35442;SDS011;21561;55.654;37.592;2022-07-29T06:48:49;4.20;;;1.60;;
35442;SDS011;21561;55.654;37.592;2022-07-29T06:51:16;7.63;;;1.63;;
35442;SDS011;21561;55.654;37.592;2022-07-29T06:53:49;8.93;;;1.65;;
35442;SDS011;21561;55.654;37.592;2022-07-29T06:56:29;10.38;;;1.75;;
35442;SDS011;21561;55.654;37.592;2022-07-29T06:59:05;5.72;;;1.63;;
35442;SDS011;21561;55.654;37.592;2022-07-29T07:01:33;8.90;;;1.80;;
35442;SDS011;21561;55.654;37.592;2022-07-29T07:04:01;10.07;;;1.70;;
35442;SDS011;21561;55.654;37.592;2022-07-29T07:06:28;5.85;;;1.52;;
35442;SDS011;21561;55.654;37.592;2022-07-29T07:08:55;7.13;;;1.50;;
35442;SDS011;21561;55.654;37.592;2022-07-29T07:11:22;4.65;;;1.85;;
35442;SDS011;21561;55.654;37.592;2022-07-29T07:13:49;6.45;;;1.63;;
35442;SDS011;21561;55.654;37.592;2022-07-29T07:16:16;5.57;;;1.42;;
35442;SDS011;21561;55.654;37.592;2022-07-29T07:18:44;6.72;;;1.73;;
35442;SDS011;21561;55.654;37.592;2022-07-29T07:21:11;8.63;;;1.67;;
35442;SDS011;21561;55.654;37.592;2022-07-29T07:23:45;5.18;;;1.50;;
35442;SDS011;21561;55.654;37.592;2022-07-29T07:26:13;8.40;;;1.40;;
35442;SDS011;21561;55.654;37.592;2022-07-29T07:28:39;6.20;;;1.48;;
35442;SDS011;21561;55.654;37.592;2022-07-29T07:31:06;3.17;;;1.27;;
35442;SDS011;21561;55.654;37.592;2022-07-29T07:33:33;5.55;;;1.30;;
35442;SDS011;21561;55.654;37.592;2022-07-29T07:36:00;4.75;;;1.50;;
35442;SDS011;21561;55.654;37.592;2022-07-29T07:38:27;5.80;;;1.15;;
35442;SDS011;21561;55.654;37.592;2022-07-29T07:40:54;5.57;;;1.30;;
35442;SDS011;21561;55.654;37.592;2022-07-29T07:43:21;3.90;;;1.10;;
35442;SDS011;21561;55.654;37.592;2022-07-29T07:45:48;8.05;;;2.20;;
35442;SDS011;21561;55.654;37.592;2022-07-29T07:48:16;6.75;;;1.30;;
35442;SDS011;21561;55.654;37.592;2022-07-29T07:50:42;3.00;;;1.30;;
35442;SDS011;21561;55.654;37.592;2022-07-29T07:53:10;4.63;;;1.38;;
35442;SDS011;21561;55.654;37.592;2022-07-29T07:55:40;6.55;;;1.60;;
35442;SDS011;21561;55.654;37.592;2022-07-29T07:58:28;6.25;;;1.50;;
35442;SDS011;21561;55.654;37.592;2022-07-29T08:00:55;4.78;;;1.35;;
35442;SDS011;21561;55.654;37.592;2022-07-29T08:03:22;6.57;;;1.42;;
35442;SDS011;21561;55.654;37.592;2022-07-29T08:05:51;10.05;;;1.60;;
35442;SDS011;21561;55.654;37.592;2022-07-29T08:08:20;8.73;;;1.50;;
35442;SDS011;21561;55.654;37.592;2022-07-29T08:10:50;5.97;;;1.50;;
35442;SDS011;21561;55.654;37.592;2022-07-29T08:13:20;2.97;;;1.30;;
35442;SDS011;21561;55.654;37.592;2022-07-29T08:15:48;5.50;;;1.70;;
35442;SDS011;21561;55.654;37.592;2022-07-29T08:18:24;5.60;;;1.30;;
35442;SDS011;21561;55.654;37.592;2022-07-29T08:20:52;8.23;;;1.60;;
35442;SDS011;21561;55.654;37.592;2022-07-29T08:23:20;8.05;;;1.70;;
35442;SDS011;21561;55.654;37.592;2022-07-29T08:25:47;7.40;;;1.48;;
35442;SDS011;21561;55.654;37.592;2022-07-29T08:28:16;2.92;;;1.10;;
35442;SDS011;21561;55.654;37.592;2022-07-29T08:30:43;5.97;;;1.40;;
35442;SDS011;21561;55.654;37.592;2022-07-29T08:33:10;7.35;;;1.20;;
35442;SDS011;21561;55.654;37.592;2022-07-29T08:35:38;13.55;;;1.80;;
35442;SDS011;21561;55.654;37.592;2022-07-29T08:38:05;4.97;;;1.20;;
35442;SDS011;21561;55.654;37.592;2022-07-29T08:40:32;4.97;;;1.48;;
35442;SDS011;21561;55.654;37.592;2022-07-29T08:43:03;8.27;;;1.80;;
35442;SDS011;21561;55.654;37.592;2022-07-29T08:45:42;5.38;;;1.67;;
35442;SDS011;21561;55.654;37.592;2022-07-29T08:48:18;5.50;;;1.25;;
35442;SDS011;21561;55.654;37.592;2022-07-29T08:50:47;3.72;;;1.17;;
35442;SDS011;21561;55.654;37.592;2022-07-29T08:53:16;6.32;;;1.35;;
35442;SDS011;21561;55.654;37.592;2022-07-29T08:55:45;4.68;;;1.38;;
35442;SDS011;21561;55.654;37.592;2022-07-29T08:58:14;5.60;;;1.30;;
35442;SDS011;21561;55.654;37.592;2022-07-29T09:00:46;6.00;;;1.27;;
35442;SDS011;21561;55.654;37.592;2022-07-29T09:03:22;5.03;;;1.75;;
35442;SDS011;21561;55.654;37.592;2022-07-29T09:05:51;4.82;;;1.30;;
35442;SDS011;21561;55.654;37.592;2022-07-29T09:08:18;6.50;;;1.25;;
35442;SDS011;21561;55.654;37.592;2022-07-29T09:10:46;7.85;;;1.40;;
35442;SDS011;21561;55.654;37.592;2022-07-29T09:13:13;6.97;;;1.35;;
35442;SDS011;21561;55.654;37.592;2022-07-29T09:15:40;4.65;;;1.13;;
35442;SDS011;21561;55.654;37.592;2022-07-29T09:18:07;3.50;;;1.27;;
35442;SDS011;21561;55.654;37.592;2022-07-29T09:20:54;5.60;;;1.23;;
35442;SDS011;21561;55.654;37.592;2022-07-29T09:23:39;7.50;;;1.80;;
35442;SDS011;21561;55.654;37.592;2022-07-29T09:26:07;2.70;;;0.80;;
35442;SDS011;21561;55.654;37.592;2022-07-29T09:28:34;5.75;;;1.35;;
35442;SDS011;21561;55.654;37.592;2022-07-29T09:31:08;6.70;;;1.50;;
35442;SDS011;21561;55.654;37.592;2022-07-29T09:33:35;6.20;;;1.33;;
35442;SDS011;21561;55.654;37.592;2022-07-29T09:36:06;3.25;;;1.42;;
35442;SDS011;21561;55.654;37.592;2022-07-29T09:38:34;1.80;;;1.05;;
35442;SDS011;21561;55.654;37.592;2022-07-29T09:41:03;3.40;;;1.20;;
35442;SDS011;21561;55.654;37.592;2022-07-29T09:43:32;3.13;;;1.23;;
35442;SDS011;21561;55.654;37.592;2022-07-29T09:46:10;6.47;;;1.30;;
35442;SDS011;21561;55.654;37.592;2022-07-29T09:48:40;5.55;;;1.17;;
35442;SDS011;21561;55.654;37.592;2022-07-29T09:51:19;5.70;;;1.20;;
35442;SDS011;21561;55.654;37.592;2022-07-29T09:54:24;4.25;;;1.05;;
35442;SDS011;21561;55.654;37.592;2022-07-29T09:56:54;3.35;;;1.55;;
35442;SDS011;21561;55.654;37.592;2022-07-29T09:59:22;4.43;;;1.10;;
35442;SDS011;21561;55.654;37.592;2022-07-29T10:01:52;3.85;;;1.27;;
35442;SDS011;21561;55.654;37.592;2022-07-29T10:04:20;3.05;;;0.88;;
35442;SDS011;21561;55.654;37.592;2022-07-29T10:06:58;5.15;;;1.05;;
35442;SDS011;21561;55.654;37.592;2022-07-29T10:09:30;4.78;;;1.20;;
35442;SDS011;21561;55.654;37.592;2022-07-29T10:12:05;4.50;;;1.50;;
35442;SDS011;21561;55.654;37.592;2022-07-29T10:14:37;6.88;;;1.52;;
35442;SDS011;21561;55.654;37.592;2022-07-29T10:17:05;4.50;;;1.30;;
35442;SDS011;21561;55.654;37.592;2022-07-29T10:19:34;3.33;;;1.08;;
35442;SDS011;21561;55.654;37.592;2022-07-29T10:22:06;2.97;;;1.05;;
35442;SDS011;21561;55.654;37.592;2022-07-29T10:24:35;2.58;;;1.10;;
35442;SDS011;21561;55.654;37.592;2022-07-29T10:27:04;4.00;;;1.50;;
35442;SDS011;21561;55.654;37.592;2022-07-29T10:29:33;3.20;;;1.08;;
35442;SDS011;21561;55.654;37.592;2022-07-29T10:41:33;2.65;;;1.00;;
35442;SDS011;21561;55.654;37.592;2022-07-29T10:46:44;4.07;;;1.20;;
35442;SDS011;21561;55.654;37.592;2022-07-29T10:49:16;4.40;;;1.10;;
35442;SDS011;21561;55.654;37.592;2022-07-29T10:54:17;3.90;;;1.20;;
35442;SDS011;21561;55.654;37.592;2022-07-29T10:56:45;3.67;;;1.33;;
35442;SDS011;21561;55.654;37.592;2022-07-29T11:01:48;2.78;;;1.25;;
35442;SDS011;21561;55.654;37.592;2022-07-29T11:07:09;3.65;;;1.13;;
35442;SDS011;21561;55.654;37.592;2022-07-29T11:09:37;3.08;;;1.20;;
35442;SDS011;21561;55.654;37.592;2022-07-29T11:12:50;4.93;;;1.20;;
35442;SDS011;21561;55.654;37.592;2022-07-29T11:20:41;3.28;;;1.33;;
35442;SDS011;21561;55.654;37.592;2022-07-29T11:23:33;4.85;;;1.40;;
35442;SDS011;21561;55.654;37.592;2022-07-29T11:39:38;4.40;;;1.40;;
35442;SDS011;21561;55.654;37.592;2022-07-29T11:45:13;5.18;;;1.33;;
35442;SDS011;21561;55.654;37.592;2022-07-29T11:48:00;4.60;;;1.10;;
35442;SDS011;21561;55.654;37.592;2022-07-29T11:50:47;4.50;;;0.95;;
35442;SDS011;21561;55.654;37.592;2022-07-29T11:53:14;3.58;;;1.20;;
35442;SDS011;21561;55.654;37.592;2022-07-29T11:55:42;5.28;;;1.20;;
35442;SDS011;21561;55.654;37.592;2022-07-29T11:58:21;7.50;;;1.52;;
35442;SDS011;21561;55.654;37.592;2022-07-29T12:01:15;4.13;;;1.20;;
35442;SDS011;21561;55.654;37.592;2022-07-29T12:03:43;2.60;;;1.17;;
35442;SDS011;21561;55.654;37.592;2022-07-29T12:06:11;5.00;;;1.33;;
35442;SDS011;21561;55.654;37.592;2022-07-29T12:08:40;5.95;;;1.50;;
35442;SDS011;21561;55.654;37.592;2022-07-29T12:11:16;2.47;;;1.10;;
35442;SDS011;21561;55.654;37.592;2022-07-29T12:13:46;3.75;;;1.30;;
35442;SDS011;21561;55.654;37.592;2022-07-29T12:16:14;8.40;;;1.63;;
35442;SDS011;21561;55.654;37.592;2022-07-29T12:18:58;6.97;;;1.30;;
35442;SDS011;21561;55.654;37.592;2022-07-29T12:21:28;3.70;;;1.10;;
35442;SDS011;21561;55.654;37.592;2022-07-29T12:24:22;4.43;;;1.08;;
35442;SDS011;21561;55.654;37.592;2022-07-29T12:26:58;3.67;;;1.23;;
35442;SDS011;21561;55.654;37.592;2022-07-29T12:29:27;4.38;;;1.33;;
35442;SDS011;21561;55.654;37.592;2022-07-29T12:32:01;3.22;;;1.40;;
35442;SDS011;21561;55.654;37.592;2022-07-29T12:34:31;5.43;;;1.33;;
35442;SDS011;21561;55.654;37.592;2022-07-29T12:36:58;3.58;;;1.17;;
35442;SDS011;21561;55.654;37.592;2022-07-29T12:39:25;4.25;;;1.27;;
35442;SDS011;21561;55.654;37.592;2022-07-29T12:41:54;2.90;;;1.00;;
35442;SDS011;21561;55.654;37.592;2022-07-29T12:44:49;4.57;;;1.25;;
35442;SDS011;21561;55.654;37.592;2022-07-29T12:47:18;3.97;;;1.20;;
35442;SDS011;21561;55.654;37.592;2022-07-29T12:49:46;4.78;;;1.52;;
35442;SDS011;21561;55.654;37.592;2022-07-29T12:52:24;7.38;;;1.25;;
35442;SDS011;21561;55.654;37.592;2022-07-29T12:54:55;2.25;;;1.20;;
35442;SDS011;21561;55.654;37.592;2022-07-29T12:57:23;3.22;;;1.35;;
35442;SDS011;21561;55.654;37.592;2022-07-29T13:00:00;5.18;;;1.55;;
35442;SDS011;21561;55.654;37.592;2022-07-29T13:02:30;4.25;;;1.55;;
35442;SDS011;21561;55.654;37.592;2022-07-29T13:04:57;3.45;;;0.93;;
35442;SDS011;21561;55.654;37.592;2022-07-29T13:07:29;3.58;;;1.38;;
35442;SDS011;21561;55.654;37.592;2022-07-29T13:10:19;7.35;;;1.38;;
35442;SDS011;21561;55.654;37.592;2022-07-29T13:15:30;7.43;;;1.50;;
35442;SDS011;21561;55.654;37.592;2022-07-29T13:17:57;6.00;;;1.33;;
35442;SDS011;21561;55.654;37.592;2022-07-29T13:20:27;3.53;;;1.20;;
35442;SDS011;21561;55.654;37.592;2022-07-29T13:22:58;3.13;;;1.10;;
35442;SDS011;21561;55.654;37.592;2022-07-29T13:25:28;4.95;;;1.45;;
35442;SDS011;21561;55.654;37.592;2022-07-29T13:27:57;3.67;;;1.30;;
35442;SDS011;21561;55.654;37.592;2022-07-29T13:30:25;6.15;;;1.60;;
35442;SDS011;21561;55.654;37.592;2022-07-29T13:32:52;5.55;;;1.70;;
35442;SDS011;21561;55.654;37.592;2022-07-29T13:35:19;9.52;;;1.63;;
35442;SDS011;21561;55.654;37.592;2022-07-29T13:37:46;6.35;;;1.60;;
35442;SDS011;21561;55.654;37.592;2022-07-29T13:40:17;4.00;;;1.60;;
35442;SDS011;21561;55.654;37.592;2022-07-29T13:42:44;5.45;;;1.60;;
35442;SDS011;21561;55.654;37.592;2022-07-29T13:45:12;5.88;;;1.40;;
35442;SDS011;21561;55.654;37.592;2022-07-29T13:47:39;6.65;;;1.40;;
35442;SDS011;21561;55.654;37.592;2022-07-29T13:50:13;5.07;;;1.77;;
35442;SDS011;21561;55.654;37.592;2022-07-29T13:52:39;5.05;;;1.77;;
35442;SDS011;21561;55.654;37.592;2022-07-29T13:55:06;7.72;;;1.77;;
35442;SDS011;21561;55.654;37.592;2022-07-29T13:57:34;5.47;;;1.80;;
35442;SDS011;21561;55.654;37.592;2022-07-29T14:00:01;5.82;;;1.58;;
35442;SDS011;21561;55.654;37.592;2022-07-29T14:02:29;3.45;;;1.63;;
35442;SDS011;21561;55.654;37.592;2022-07-29T14:04:55;6.57;;;1.80;;
35442;SDS011;21561;55.654;37.592;2022-07-29T14:07:22;6.80;;;1.80;;
35442;SDS011;21561;55.654;37.592;2022-07-29T14:09:50;3.15;;;1.60;;
35442;SDS011;21561;55.654;37.592;2022-07-29T14:12:17;9.00;;;1.70;;
35442;SDS011;21561;55.654;37.592;2022-07-29T14:14:45;5.43;;;1.80;;
35442;SDS011;21561;55.654;37.592;2022-07-29T14:17:12;4.40;;;1.83;;
35442;SDS011;21561;55.654;37.592;2022-07-29T14:19:40;7.00;;;1.95;;
35442;SDS011;21561;55.654;37.592;2022-07-29T14:22:07;4.43;;;1.90;;
35442;SDS011;21561;55.654;37.592;2022-07-29T14:24:36;6.82;;;1.90;;
35442;SDS011;21561;55.654;37.592;2022-07-29T14:27:04;6.45;;;1.70;;
35442;SDS011;21561;55.654;37.592;2022-07-29T14:29:32;7.00;;;1.90;;
35442;SDS011;21561;55.654;37.592;2022-07-29T14:32:04;5.82;;;1.60;;
35442;SDS011;21561;55.654;37.592;2022-07-29T14:34:33;2.92;;;1.55;;
35442;SDS011;21561;55.654;37.592;2022-07-29T14:37:01;5.25;;;1.60;;
35442;SDS011;21561;55.654;37.592;2022-07-29T14:39:29;6.05;;;1.80;;
35442;SDS011;21561;55.654;37.592;2022-07-29T14:41:57;7.72;;;1.55;;
35442;SDS011;21561;55.654;37.592;2022-07-29T14:44:25;6.57;;;1.67;;
35442;SDS011;21561;55.654;37.592;2022-07-29T14:47:00;6.53;;;1.63;;
35442;SDS011;21561;55.654;37.592;2022-07-29T14:49:33;6.93;;;1.65;;
35442;SDS011;21561;55.654;37.592;2022-07-29T14:52:01;6.45;;;1.70;;
35442;SDS011;21561;55.654;37.592;2022-07-29T14:54:30;6.25;;;1.67;;
35442;SDS011;21561;55.654;37.592;2022-07-29T14:56:57;6.88;;;1.60;;
35442;SDS011;21561;55.654;37.592;2022-07-29T14:59:24;4.38;;;1.52;;
35442;SDS011;21561;55.654;37.592;2022-07-29T15:01:52;8.57;;;1.52;;
35442;SDS011;21561;55.654;37.592;2022-07-29T15:04:19;3.38;;;1.38;;
35442;SDS011;21561;55.654;37.592;2022-07-29T15:06:46;6.82;;;1.45;;
35442;SDS011;21561;55.654;37.592;2022-07-29T15:09:13;3.55;;;1.45;;
35442;SDS011;21561;55.654;37.592;2022-07-29T15:11:40;7.10;;;1.88;;
35442;SDS011;21561;55.654;37.592;2022-07-29T15:14:07;4.28;;;1.83;;
35442;SDS011;21561;55.654;37.592;2022-07-29T15:16:37;4.75;;;1.60;;
35442;SDS011;21561;55.654;37.592;2022-07-29T15:19:09;5.20;;;1.50;;
35442;SDS011;21561;55.654;37.592;2022-07-29T15:21:36;5.63;;;1.70;;
35442;SDS011;21561;55.654;37.592;2022-07-29T15:24:13;5.05;;;1.63;;
35442;SDS011;21561;55.654;37.592;2022-07-29T15:26:41;5.50;;;1.50;;
35442;SDS011;21561;55.654;37.592;2022-07-29T15:29:08;5.65;;;1.40;;
35442;SDS011;21561;55.654;37.592;2022-07-29T15:31:36;5.80;;;1.80;;
35442;SDS011;21561;55.654;37.592;2022-07-29T15:34:03;4.72;;;1.70;;
35442;SDS011;21561;55.654;37.592;2022-07-29T15:36:31;5.78;;;1.58;;
35442;SDS011;21561;55.654;37.592;2022-07-29T15:39:18;7.82;;;1.50;;
35442;SDS011;21561;55.654;37.592;2022-07-29T15:41:45;4.97;;;1.30;;
35442;SDS011;21561;55.654;37.592;2022-07-29T15:44:12;4.95;;;1.60;;
35442;SDS011;21561;55.654;37.592;2022-07-29T15:46:39;4.30;;;1.70;;
35442;SDS011;21561;55.654;37.592;2022-07-29T15:49:26;4.57;;;1.48;;
35442;SDS011;21561;55.654;37.592;2022-07-29T15:52:18;7.63;;;1.65;;